sensor_id;sensor_type;location;lat;lon;timestamp;P1;durP1;ratioP1;P2;durP2;ratioP2
9934;SDS011;5006;41.828;23.478;2022-10-22T00:00:55;6.63;;;4.60;;
9934;SDS011;5006;41.828;23.478;2022-10-22T00:02:00;5.25;;;4.70;;
9934;SDS011;5006;41.828;23.478;2022-10-22T00:03:07;4.95;;;4.45;;
9934;SDS011;5006;41.828;23.478;2022-10-22T00:04:12;6.95;;;4.60;;
9934;SDS011;5006;41.828;23.478;2022-10-22T00:05:17;7.15;;;5.05;;
9934;SDS011;5006;41.828;23.478;2022-10-22T00:06:22;6.47;;;4.90;;
9934;SDS011;5006;41.828;23.478;2022-10-22T00:07:28;5.57;;;5.00;;
9934;SDS011;5006;41.828;23.478;2022-10-22T00:08:33;5.25;;;4.75;;
9934;SDS011;5006;41.828;23.478;2022-10-22T00:09:39;6.60;;;4.93;;
9934;SDS011;5006;41.828;23.478;2022-10-22T00:10:44;6.03;;;5.40;;
9934;SDS011;5006;41.828;23.478;2022-10-22T00:11:51;5.63;;;4.93;;
9934;SDS011;5006;41.828;23.478;2022-10-22T00:12:57;6.13;;;5.28;;
9934;SDS011;5006;41.828;23.478;2022-10-22T00:14:02;5.78;;;5.25;;
9934;SDS011;5006;41.828;23.478;2022-10-22T00:15:09;5.88;;;5.28;;
9934;SDS011;5006;41.828;23.478;2022-10-22T00:16:14;5.82;;;5.05;;
9934;SDS011;5006;41.828;23.478;2022-10-22T00:17:20;5.75;;;4.80;;
9934;SDS011;5006;41.828;23.478;2022-10-22T00:18:25;7.97;;;5.53;;
9934;SDS011;5006;41.828;23.478;2022-10-22T00:19:30;5.90;;;5.30;;
9934;SDS011;5006;41.828;23.478;2022-10-22T00:20:36;5.70;;;5.15;;
9934;SDS011;5006;41.828;23.478;2022-10-22T00:21:41;6.03;;;5.15;;
9934;SDS011;5006;41.828;23.478;2022-10-22T00:22:47;8.75;;;5.82;;
9934;SDS011;5006;41.828;23.478;2022-10-22T00:23:52;7.20;;;5.35;;
9934;SDS011;5006;41.828;23.478;2022-10-22T00:24:57;6.80;;;5.65;;
9934;SDS011;5006;41.828;23.478;2022-10-22T00:26:02;6.10;;;5.50;;
9934;SDS011;5006;41.828;23.478;2022-10-22T00:27:10;5.97;;;5.35;;
9934;SDS011;5006;41.828;23.478;2022-10-22T00:28:15;7.88;;;5.35;;
9934;SDS011;5006;41.828;23.478;2022-10-22T00:29:21;6.30;;;4.97;;
9934;SDS011;5006;41.828;23.478;2022-10-22T00:30:26;5.57;;;4.88;;
9934;SDS011;5006;41.828;23.478;2022-10-22T00:31:32;7.75;;;4.97;;
9934;SDS011;5006;41.828;23.478;2022-10-22T00:32:37;5.82;;;4.75;;
9934;SDS011;5006;41.828;23.478;2022-10-22T00:33:42;5.25;;;4.72;;
9934;SDS011;5006;41.828;23.478;2022-10-22T00:34:49;6.68;;;5.50;;
9934;SDS011;5006;41.828;23.478;2022-10-22T00:35:55;6.35;;;5.50;;
9934;SDS011;5006;41.828;23.478;2022-10-22T00:37:00;8.18;;;5.88;;
9934;SDS011;5006;41.828;23.478;2022-10-22T00:38:06;6.50;;;5.57;;
9934;SDS011;5006;41.828;23.478;2022-10-22T00:39:11;6.57;;;5.85;;
9934;SDS011;5006;41.828;23.478;2022-10-22T00:40:19;7.10;;;5.88;;
9934;SDS011;5006;41.828;23.478;2022-10-22T00:41:24;7.05;;;5.75;;
9934;SDS011;5006;41.828;23.478;2022-10-22T00:42:31;7.70;;;5.82;;
9934;SDS011;5006;41.828;23.478;2022-10-22T00:45:18;8.13;;;6.07;;
9934;SDS011;5006;41.828;23.478;2022-10-22T00:46:25;6.50;;;5.70;;
9934;SDS011;5006;41.828;23.478;2022-10-22T00:47:31;7.38;;;5.93;;
9934;SDS011;5006;41.828;23.478;2022-10-22T00:48:41;5.80;;;4.80;;
9934;SDS011;5006;41.828;23.478;2022-10-22T00:49:45;7.45;;;5.22;;
9934;SDS011;5006;41.828;23.478;2022-10-22T00:50:53;6.22;;;5.40;;
9934;SDS011;5006;41.828;23.478;2022-10-22T00:52:00;5.00;;;4.50;;
9934;SDS011;5006;41.828;23.478;2022-10-22T00:53:06;7.43;;;5.13;;
9934;SDS011;5006;41.828;23.478;2022-10-22T00:54:16;5.90;;;4.88;;
9934;SDS011;5006;41.828;23.478;2022-10-22T00:55:21;7.15;;;5.20;;
9934;SDS011;5006;41.828;23.478;2022-10-22T00:56:28;6.32;;;5.72;;
9934;SDS011;5006;41.828;23.478;2022-10-22T00:57:34;6.13;;;5.53;;
9934;SDS011;5006;41.828;23.478;2022-10-22T00:58:42;7.40;;;5.65;;
9934;SDS011;5006;41.828;23.478;2022-10-22T00:59:49;5.85;;;5.22;;
9934;SDS011;5006;41.828;23.478;2022-10-22T01:00:55;5.78;;;4.50;;
9934;SDS011;5006;41.828;23.478;2022-10-22T01:02:01;5.80;;;3.92;;
9934;SDS011;5006;41.828;23.478;2022-10-22T01:03:06;5.63;;;4.53;;
9934;SDS011;5006;41.828;23.478;2022-10-22T01:04:11;4.53;;;3.90;;
9934;SDS011;5006;41.828;23.478;2022-10-22T01:05:16;5.55;;;4.22;;
9934;SDS011;5006;41.828;23.478;2022-10-22T01:06:23;5.70;;;5.03;;
9934;SDS011;5006;41.828;23.478;2022-10-22T01:07:31;5.93;;;5.13;;
9934;SDS011;5006;41.828;23.478;2022-10-22T01:08:47;7.38;;;5.28;;
9934;SDS011;5006;41.828;23.478;2022-10-22T01:10:02;6.40;;;4.78;;
9934;SDS011;5006;41.828;23.478;2022-10-22T01:11:14;4.13;;;3.72;;
9934;SDS011;5006;41.828;23.478;2022-10-22T01:12:26;4.25;;;3.65;;
9934;SDS011;5006;41.828;23.478;2022-10-22T01:13:46;5.18;;;3.60;;
9934;SDS011;5006;41.828;23.478;2022-10-22T01:15:01;3.75;;;3.35;;
9934;SDS011;5006;41.828;23.478;2022-10-22T01:16:16;3.95;;;3.13;;
9934;SDS011;5006;41.828;23.478;2022-10-22T01:17:27;4.03;;;3.10;;
9934;SDS011;5006;41.828;23.478;2022-10-22T01:18:39;3.95;;;3.30;;
9934;SDS011;5006;41.828;23.478;2022-10-22T01:19:55;5.03;;;3.22;;
9934;SDS011;5006;41.828;23.478;2022-10-22T01:21:13;4.90;;;3.80;;
9934;SDS011;5006;41.828;23.478;2022-10-22T01:22:26;4.63;;;3.72;;
9934;SDS011;5006;41.828;23.478;2022-10-22T01:25:15;5.18;;;3.58;;
9934;SDS011;5006;41.828;23.478;2022-10-22T01:26:27;6.15;;;4.63;;
9934;SDS011;5006;41.828;23.478;2022-10-22T01:27:50;4.45;;;3.90;;
9934;SDS011;5006;41.828;23.478;2022-10-22T01:29:08;5.40;;;4.15;;
9934;SDS011;5006;41.828;23.478;2022-10-22T01:30:16;5.88;;;4.75;;
9934;SDS011;5006;41.828;23.478;2022-10-22T01:31:23;6.63;;;4.38;;
9934;SDS011;5006;41.828;23.478;2022-10-22T01:32:34;5.35;;;4.10;;
9934;SDS011;5006;41.828;23.478;2022-10-22T01:33:44;4.20;;;3.80;;
9934;SDS011;5006;41.828;23.478;2022-10-22T01:34:52;5.10;;;3.70;;
9934;SDS011;5006;41.828;23.478;2022-10-22T01:36:01;4.35;;;3.63;;
9934;SDS011;5006;41.828;23.478;2022-10-22T01:37:08;4.30;;;3.90;;
9934;SDS011;5006;41.828;23.478;2022-10-22T01:38:16;4.95;;;3.72;;
9934;SDS011;5006;41.828;23.478;2022-10-22T01:39:26;4.90;;;4.40;;
9934;SDS011;5006;41.828;23.478;2022-10-22T01:40:32;5.70;;;4.40;;
9934;SDS011;5006;41.828;23.478;2022-10-22T01:41:41;5.05;;;4.43;;
9934;SDS011;5006;41.828;23.478;2022-10-22T01:42:55;5.07;;;4.25;;
9934;SDS011;5006;41.828;23.478;2022-10-22T01:44:02;6.07;;;4.75;;
9934;SDS011;5006;41.828;23.478;2022-10-22T01:45:12;5.95;;;4.40;;
9934;SDS011;5006;41.828;23.478;2022-10-22T01:46:19;7.60;;;5.40;;
9934;SDS011;5006;41.828;23.478;2022-10-22T01:47:30;6.95;;;5.60;;
9934;SDS011;5006;41.828;23.478;2022-10-22T01:48:47;8.90;;;6.65;;
9934;SDS011;5006;41.828;23.478;2022-10-22T01:50:21;6.50;;;5.45;;
9934;SDS011;5006;41.828;23.478;2022-10-22T01:51:45;6.97;;;5.88;;
9934;SDS011;5006;41.828;23.478;2022-10-22T01:53:00;7.40;;;5.78;;
9934;SDS011;5006;41.828;23.478;2022-10-22T01:54:20;7.63;;;5.45;;
9934;SDS011;5006;41.828;23.478;2022-10-22T01:55:39;8.30;;;6.15;;
9934;SDS011;5006;41.828;23.478;2022-10-22T01:56:53;7.85;;;5.80;;
9934;SDS011;5006;41.828;23.478;2022-10-22T01:58:13;6.07;;;4.97;;
9934;SDS011;5006;41.828;23.478;2022-10-22T01:59:30;7.85;;;4.18;;
9934;SDS011;5006;41.828;23.478;2022-10-22T02:00:45;5.20;;;4.70;;
9934;SDS011;5006;41.828;23.478;2022-10-22T02:02:02;5.53;;;4.80;;
9934;SDS011;5006;41.828;23.478;2022-10-22T02:03:12;7.55;;;4.43;;
9934;SDS011;5006;41.828;23.478;2022-10-22T02:04:24;6.85;;;4.57;;
9934;SDS011;5006;41.828;23.478;2022-10-22T02:05:35;5.95;;;5.32;;
9934;SDS011;5006;41.828;23.478;2022-10-22T02:06:44;5.85;;;5.05;;
9934;SDS011;5006;41.828;23.478;2022-10-22T02:07:53;6.60;;;5.60;;
9934;SDS011;5006;41.828;23.478;2022-10-22T02:09:01;6.82;;;5.45;;
9934;SDS011;5006;41.828;23.478;2022-10-22T02:10:08;7.55;;;5.10;;
9934;SDS011;5006;41.828;23.478;2022-10-22T02:11:14;7.15;;;6.00;;
9934;SDS011;5006;41.828;23.478;2022-10-22T02:12:19;7.15;;;5.50;;
9934;SDS011;5006;41.828;23.478;2022-10-22T02:13:27;7.40;;;5.75;;
9934;SDS011;5006;41.828;23.478;2022-10-22T02:14:40;6.80;;;5.25;;
9934;SDS011;5006;41.828;23.478;2022-10-22T02:15:48;5.65;;;5.05;;
9934;SDS011;5006;41.828;23.478;2022-10-22T02:16:55;6.05;;;5.25;;
9934;SDS011;5006;41.828;23.478;2022-10-22T02:18:03;6.47;;;5.63;;
9934;SDS011;5006;41.828;23.478;2022-10-22T02:19:14;7.30;;;5.22;;
9934;SDS011;5006;41.828;23.478;2022-10-22T02:20:28;6.47;;;5.57;;
9934;SDS011;5006;41.828;23.478;2022-10-22T02:21:36;8.27;;;5.60;;
9934;SDS011;5006;41.828;23.478;2022-10-22T02:22:42;7.35;;;5.40;;
9934;SDS011;5006;41.828;23.478;2022-10-22T02:23:47;7.82;;;5.32;;
9934;SDS011;5006;41.828;23.478;2022-10-22T02:24:53;4.75;;;4.30;;
9934;SDS011;5006;41.828;23.478;2022-10-22T02:25:59;5.43;;;4.80;;
9934;SDS011;5006;41.828;23.478;2022-10-22T02:27:12;6.32;;;5.35;;
9934;SDS011;5006;41.828;23.478;2022-10-22T02:28:25;5.75;;;4.68;;
9934;SDS011;5006;41.828;23.478;2022-10-22T02:29:37;5.70;;;5.10;;
9934;SDS011;5006;41.828;23.478;2022-10-22T02:30:50;5.78;;;4.72;;
9934;SDS011;5006;41.828;23.478;2022-10-22T02:31:59;5.13;;;4.63;;
9934;SDS011;5006;41.828;23.478;2022-10-22T02:33:07;5.80;;;4.50;;
9934;SDS011;5006;41.828;23.478;2022-10-22T02:34:18;4.93;;;4.43;;
9934;SDS011;5006;41.828;23.478;2022-10-22T02:35:25;5.05;;;4.55;;
9934;SDS011;5006;41.828;23.478;2022-10-22T02:36:33;9.55;;;4.75;;
9934;SDS011;5006;41.828;23.478;2022-10-22T02:37:39;6.68;;;5.03;;
9934;SDS011;5006;41.828;23.478;2022-10-22T02:39:51;8.15;;;5.30;;
9934;SDS011;5006;41.828;23.478;2022-10-22T02:40:59;6.28;;;4.88;;
9934;SDS011;5006;41.828;23.478;2022-10-22T02:42:04;5.35;;;4.40;;
9934;SDS011;5006;41.828;23.478;2022-10-22T02:43:09;7.60;;;5.07;;
9934;SDS011;5006;41.828;23.478;2022-10-22T02:44:15;6.75;;;5.00;;
9934;SDS011;5006;41.828;23.478;2022-10-22T02:45:25;6.20;;;4.95;;
9934;SDS011;5006;41.828;23.478;2022-10-22T02:46:32;4.78;;;4.28;;
9934;SDS011;5006;41.828;23.478;2022-10-22T02:47:38;5.10;;;4.38;;
9934;SDS011;5006;41.828;23.478;2022-10-22T02:48:42;6.15;;;4.47;;
9934;SDS011;5006;41.828;23.478;2022-10-22T02:49:48;6.03;;;4.57;;
9934;SDS011;5006;41.828;23.478;2022-10-22T02:50:53;6.43;;;4.00;;
9934;SDS011;5006;41.828;23.478;2022-10-22T02:51:59;4.80;;;3.97;;
9934;SDS011;5006;41.828;23.478;2022-10-22T02:53:04;6.38;;;4.28;;
9934;SDS011;5006;41.828;23.478;2022-10-22T02:54:10;5.57;;;4.25;;
9934;SDS011;5006;41.828;23.478;2022-10-22T02:55:15;5.47;;;4.80;;
9934;SDS011;5006;41.828;23.478;2022-10-22T02:56:21;5.70;;;4.47;;
9934;SDS011;5006;41.828;23.478;2022-10-22T02:57:25;6.95;;;4.88;;
9934;SDS011;5006;41.828;23.478;2022-10-22T02:58:31;5.57;;;4.53;;
9934;SDS011;5006;41.828;23.478;2022-10-22T02:59:36;5.18;;;4.45;;
9934;SDS011;5006;41.828;23.478;2022-10-22T03:00:41;7.55;;;4.07;;
9934;SDS011;5006;41.828;23.478;2022-10-22T03:01:47;4.57;;;4.18;;
9934;SDS011;5006;41.828;23.478;2022-10-22T03:02:53;5.78;;;4.30;;
9934;SDS011;5006;41.828;23.478;2022-10-22T03:03:58;7.28;;;4.50;;
9934;SDS011;5006;41.828;23.478;2022-10-22T03:05:04;5.55;;;4.90;;
9934;SDS011;5006;41.828;23.478;2022-10-22T03:06:09;5.80;;;4.97;;
9934;SDS011;5006;41.828;23.478;2022-10-22T03:07:34;5.53;;;4.95;;
9934;SDS011;5006;41.828;23.478;2022-10-22T03:08:39;5.32;;;4.53;;
9934;SDS011;5006;41.828;23.478;2022-10-22T03:09:45;6.30;;;4.47;;
9934;SDS011;5006;41.828;23.478;2022-10-22T03:10:50;6.18;;;4.95;;
9934;SDS011;5006;41.828;23.478;2022-10-22T03:11:56;5.43;;;4.60;;
9934;SDS011;5006;41.828;23.478;2022-10-22T03:13:00;6.72;;;4.90;;
9934;SDS011;5006;41.828;23.478;2022-10-22T03:14:06;8.18;;;5.00;;
9934;SDS011;5006;41.828;23.478;2022-10-22T03:15:11;6.50;;;4.88;;
9934;SDS011;5006;41.828;23.478;2022-10-22T03:16:17;7.00;;;4.30;;
9934;SDS011;5006;41.828;23.478;2022-10-22T03:17:23;4.57;;;4.15;;
9934;SDS011;5006;41.828;23.478;2022-10-22T03:18:29;5.70;;;5.03;;
9934;SDS011;5006;41.828;23.478;2022-10-22T03:19:34;7.07;;;5.32;;
9934;SDS011;5006;41.828;23.478;2022-10-22T03:20:39;5.75;;;5.10;;
9934;SDS011;5006;41.828;23.478;2022-10-22T03:21:46;7.95;;;5.65;;
9934;SDS011;5006;41.828;23.478;2022-10-22T03:22:54;7.63;;;6.45;;
9934;SDS011;5006;41.828;23.478;2022-10-22T03:24:00;7.90;;;6.63;;
9934;SDS011;5006;41.828;23.478;2022-10-22T03:25:08;7.40;;;6.38;;
9934;SDS011;5006;41.828;23.478;2022-10-22T03:26:15;7.35;;;6.25;;
9934;SDS011;5006;41.828;23.478;2022-10-22T03:27:21;6.95;;;6.20;;
9934;SDS011;5006;41.828;23.478;2022-10-22T03:28:26;8.02;;;6.53;;
9934;SDS011;5006;41.828;23.478;2022-10-22T03:29:33;8.73;;;6.10;;
9934;SDS011;5006;41.828;23.478;2022-10-22T03:30:41;7.78;;;6.20;;
9934;SDS011;5006;41.828;23.478;2022-10-22T03:31:46;7.22;;;5.78;;
9934;SDS011;5006;41.828;23.478;2022-10-22T03:32:52;6.78;;;5.95;;
9934;SDS011;5006;41.828;23.478;2022-10-22T03:33:58;6.70;;;5.22;;
9934;SDS011;5006;41.828;23.478;2022-10-22T03:35:02;6.57;;;5.85;;
9934;SDS011;5006;41.828;23.478;2022-10-22T03:36:08;6.55;;;5.70;;
9934;SDS011;5006;41.828;23.478;2022-10-22T03:37:14;6.45;;;5.75;;
9934;SDS011;5006;41.828;23.478;2022-10-22T03:38:19;8.68;;;5.68;;
9934;SDS011;5006;41.828;23.478;2022-10-22T03:39:25;9.40;;;5.80;;
9934;SDS011;5006;41.828;23.478;2022-10-22T03:40:32;5.85;;;5.22;;
9934;SDS011;5006;41.828;23.478;2022-10-22T03:41:38;6.75;;;5.65;;
9934;SDS011;5006;41.828;23.478;2022-10-22T03:42:43;6.50;;;5.10;;
9934;SDS011;5006;41.828;23.478;2022-10-22T03:43:49;5.50;;;5.00;;
9934;SDS011;5006;41.828;23.478;2022-10-22T03:44:57;6.10;;;5.10;;
9934;SDS011;5006;41.828;23.478;2022-10-22T03:46:01;4.97;;;4.47;;
9934;SDS011;5006;41.828;23.478;2022-10-22T03:47:07;6.60;;;5.15;;
9934;SDS011;5006;41.828;23.478;2022-10-22T03:48:13;6.28;;;5.10;;
9934;SDS011;5006;41.828;23.478;2022-10-22T03:49:19;5.90;;;4.78;;
9934;SDS011;5006;41.828;23.478;2022-10-22T03:50:24;5.65;;;4.30;;
9934;SDS011;5006;41.828;23.478;2022-10-22T03:51:30;6.13;;;5.07;;
9934;SDS011;5006;41.828;23.478;2022-10-22T03:52:35;7.97;;;4.88;;
9934;SDS011;5006;41.828;23.478;2022-10-22T03:53:42;5.10;;;4.53;;
9934;SDS011;5006;41.828;23.478;2022-10-22T03:54:47;6.28;;;5.35;;
9934;SDS011;5006;41.828;23.478;2022-10-22T03:55:53;5.68;;;4.93;;
9934;SDS011;5006;41.828;23.478;2022-10-22T03:56:58;6.75;;;5.00;;
9934;SDS011;5006;41.828;23.478;2022-10-22T03:58:04;7.13;;;5.40;;
9934;SDS011;5006;41.828;23.478;2022-10-22T03:59:09;7.93;;;5.10;;
9934;SDS011;5006;41.828;23.478;2022-10-22T04:00:16;6.00;;;5.25;;
9934;SDS011;5006;41.828;23.478;2022-10-22T04:01:21;5.90;;;5.18;;
9934;SDS011;5006;41.828;23.478;2022-10-22T04:02:27;6.40;;;5.05;;
9934;SDS011;5006;41.828;23.478;2022-10-22T04:03:33;6.97;;;5.03;;
9934;SDS011;5006;41.828;23.478;2022-10-22T04:04:39;6.55;;;5.38;;
9934;SDS011;5006;41.828;23.478;2022-10-22T04:05:44;8.60;;;5.20;;
9934;SDS011;5006;41.828;23.478;2022-10-22T04:06:50;6.40;;;5.13;;
9934;SDS011;5006;41.828;23.478;2022-10-22T04:07:55;9.25;;;5.28;;
9934;SDS011;5006;41.828;23.478;2022-10-22T04:09:00;5.55;;;4.95;;
9934;SDS011;5006;41.828;23.478;2022-10-22T04:10:06;9.13;;;5.45;;
9934;SDS011;5006;41.828;23.478;2022-10-22T04:11:12;5.80;;;5.15;;
9934;SDS011;5006;41.828;23.478;2022-10-22T04:12:18;6.07;;;5.10;;
9934;SDS011;5006;41.828;23.478;2022-10-22T04:13:24;6.38;;;5.50;;
9934;SDS011;5006;41.828;23.478;2022-10-22T04:14:29;7.47;;;5.78;;
9934;SDS011;5006;41.828;23.478;2022-10-22T04:15:34;6.30;;;5.30;;
9934;SDS011;5006;41.828;23.478;2022-10-22T04:16:39;6.97;;;5.53;;
9934;SDS011;5006;41.828;23.478;2022-10-22T04:17:45;5.47;;;4.90;;
9934;SDS011;5006;41.828;23.478;2022-10-22T04:18:52;6.40;;;5.63;;
9934;SDS011;5006;41.828;23.478;2022-10-22T04:19:57;7.15;;;5.10;;
9934;SDS011;5006;41.828;23.478;2022-10-22T04:21:02;5.32;;;4.40;;
9934;SDS011;5006;41.828;23.478;2022-10-22T04:22:08;5.10;;;4.60;;
9934;SDS011;5006;41.828;23.478;2022-10-22T04:23:13;6.32;;;5.22;;
9934;SDS011;5006;41.828;23.478;2022-10-22T04:24:19;8.02;;;4.85;;
9934;SDS011;5006;41.828;23.478;2022-10-22T04:25:23;6.35;;;4.97;;
9934;SDS011;5006;41.828;23.478;2022-10-22T04:26:29;6.72;;;5.70;;
9934;SDS011;5006;41.828;23.478;2022-10-22T04:27:35;7.50;;;5.65;;
9934;SDS011;5006;41.828;23.478;2022-10-22T04:28:41;5.90;;;5.30;;
9934;SDS011;5006;41.828;23.478;2022-10-22T04:29:46;8.30;;;7.28;;
9934;SDS011;5006;41.828;23.478;2022-10-22T04:30:52;10.73;;;7.53;;
9934;SDS011;5006;41.828;23.478;2022-10-22T04:31:57;7.45;;;6.63;;
9934;SDS011;5006;41.828;23.478;2022-10-22T04:33:03;7.70;;;6.10;;
9934;SDS011;5006;41.828;23.478;2022-10-22T04:34:09;7.57;;;6.65;;
9934;SDS011;5006;41.828;23.478;2022-10-22T04:35:15;8.68;;;6.30;;
9934;SDS011;5006;41.828;23.478;2022-10-22T04:36:19;6.88;;;5.85;;
9934;SDS011;5006;41.828;23.478;2022-10-22T04:37:25;7.97;;;5.65;;
9934;SDS011;5006;41.828;23.478;2022-10-22T04:38:31;6.18;;;5.07;;
9934;SDS011;5006;41.828;23.478;2022-10-22T04:39:37;5.32;;;4.82;;
9934;SDS011;5006;41.828;23.478;2022-10-22T04:40:42;7.05;;;4.93;;
9934;SDS011;5006;41.828;23.478;2022-10-22T04:41:47;6.75;;;5.18;;
9934;SDS011;5006;41.828;23.478;2022-10-22T04:42:52;6.40;;;5.43;;
9934;SDS011;5006;41.828;23.478;2022-10-22T04:43:58;6.90;;;5.25;;
9934;SDS011;5006;41.828;23.478;2022-10-22T04:45:04;6.88;;;5.90;;
9934;SDS011;5006;41.828;23.478;2022-10-22T04:46:10;6.45;;;5.18;;
9934;SDS011;5006;41.828;23.478;2022-10-22T04:47:16;7.03;;;5.60;;
9934;SDS011;5006;41.828;23.478;2022-10-22T04:48:22;9.10;;;6.35;;
9934;SDS011;5006;41.828;23.478;2022-10-22T04:49:27;8.23;;;7.10;;
9934;SDS011;5006;41.828;23.478;2022-10-22T04:50:34;8.55;;;6.93;;
9934;SDS011;5006;41.828;23.478;2022-10-22T04:51:38;7.70;;;6.88;;
9934;SDS011;5006;41.828;23.478;2022-10-22T04:52:44;9.70;;;6.70;;
9934;SDS011;5006;41.828;23.478;2022-10-22T04:53:49;7.57;;;6.45;;
9934;SDS011;5006;41.828;23.478;2022-10-22T04:54:55;7.85;;;6.40;;
9934;SDS011;5006;41.828;23.478;2022-10-22T04:56:07;6.63;;;5.50;;
9934;SDS011;5006;41.828;23.478;2022-10-22T04:57:13;6.88;;;5.32;;
9934;SDS011;5006;41.828;23.478;2022-10-22T04:58:18;5.63;;;4.88;;
9934;SDS011;5006;41.828;23.478;2022-10-22T04:59:24;7.22;;;4.78;;
9934;SDS011;5006;41.828;23.478;2022-10-22T05:00:29;6.03;;;4.93;;
9934;SDS011;5006;41.828;23.478;2022-10-22T05:01:36;6.30;;;4.70;;
9934;SDS011;5006;41.828;23.478;2022-10-22T05:02:42;6.32;;;5.05;;
9934;SDS011;5006;41.828;23.478;2022-10-22T05:03:49;7.63;;;5.15;;
9934;SDS011;5006;41.828;23.478;2022-10-22T05:04:58;8.38;;;5.00;;
9934;SDS011;5006;41.828;23.478;2022-10-22T05:06:04;7.63;;;5.35;;
9934;SDS011;5006;41.828;23.478;2022-10-22T05:07:08;5.28;;;4.65;;
9934;SDS011;5006;41.828;23.478;2022-10-22T05:08:14;5.47;;;4.85;;
9934;SDS011;5006;41.828;23.478;2022-10-22T05:09:19;6.60;;;4.82;;
9934;SDS011;5006;41.828;23.478;2022-10-22T05:10:25;5.38;;;4.55;;
9934;SDS011;5006;41.828;23.478;2022-10-22T05:11:32;6.85;;;4.60;;
9934;SDS011;5006;41.828;23.478;2022-10-22T05:12:39;6.40;;;4.68;;
9934;SDS011;5006;41.828;23.478;2022-10-22T05:13:44;6.15;;;4.50;;
9934;SDS011;5006;41.828;23.478;2022-10-22T05:14:49;5.25;;;4.75;;
9934;SDS011;5006;41.828;23.478;2022-10-22T05:15:55;7.68;;;4.50;;
9934;SDS011;5006;41.828;23.478;2022-10-22T05:17:04;6.97;;;5.07;;
9934;SDS011;5006;41.828;23.478;2022-10-22T05:18:09;8.95;;;5.00;;
9934;SDS011;5006;41.828;23.478;2022-10-22T05:19:16;6.60;;;5.50;;
9934;SDS011;5006;41.828;23.478;2022-10-22T05:20:25;9.48;;;5.93;;
9934;SDS011;5006;41.828;23.478;2022-10-22T05:21:30;6.55;;;5.90;;
9934;SDS011;5006;41.828;23.478;2022-10-22T05:22:36;9.23;;;5.93;;
9934;SDS011;5006;41.828;23.478;2022-10-22T05:23:41;6.35;;;5.70;;
9934;SDS011;5006;41.828;23.478;2022-10-22T05:24:46;6.68;;;5.97;;
9934;SDS011;5006;41.828;23.478;2022-10-22T05:25:52;7.82;;;5.60;;
9934;SDS011;5006;41.828;23.478;2022-10-22T05:26:58;8.10;;;6.18;;
9934;SDS011;5006;41.828;23.478;2022-10-22T05:28:05;7.05;;;6.35;;
9934;SDS011;5006;41.828;23.478;2022-10-22T05:29:09;6.55;;;5.85;;
9934;SDS011;5006;41.828;23.478;2022-10-22T05:30:15;7.22;;;6.50;;
9934;SDS011;5006;41.828;23.478;2022-10-22T05:31:20;10.90;;;8.07;;
9934;SDS011;5006;41.828;23.478;2022-10-22T05:32:26;9.80;;;7.40;;
9934;SDS011;5006;41.828;23.478;2022-10-22T05:33:32;10.85;;;7.78;;
9934;SDS011;5006;41.828;23.478;2022-10-22T05:34:37;10.57;;;6.88;;
9934;SDS011;5006;41.828;23.478;2022-10-22T05:35:44;9.98;;;7.25;;
9934;SDS011;5006;41.828;23.478;2022-10-22T05:36:48;7.43;;;6.72;;
9934;SDS011;5006;41.828;23.478;2022-10-22T05:37:54;6.53;;;5.88;;
9934;SDS011;5006;41.828;23.478;2022-10-22T05:38:58;6.10;;;5.40;;
9934;SDS011;5006;41.828;23.478;2022-10-22T05:40:05;6.35;;;5.57;;
9934;SDS011;5006;41.828;23.478;2022-10-22T05:41:11;7.78;;;6.38;;
9934;SDS011;5006;41.828;23.478;2022-10-22T05:42:18;6.35;;;5.68;;
9934;SDS011;5006;41.828;23.478;2022-10-22T05:43:23;8.23;;;6.20;;
9934;SDS011;5006;41.828;23.478;2022-10-22T05:44:29;7.43;;;6.65;;
9934;SDS011;5006;41.828;23.478;2022-10-22T05:45:35;10.45;;;8.05;;
9934;SDS011;5006;41.828;23.478;2022-10-22T05:46:40;17.00;;;11.55;;
9934;SDS011;5006;41.828;23.478;2022-10-22T05:47:46;12.02;;;7.85;;
9934;SDS011;5006;41.828;23.478;2022-10-22T05:48:52;8.85;;;7.13;;
9934;SDS011;5006;41.828;23.478;2022-10-22T05:50:02;7.82;;;6.70;;
9934;SDS011;5006;41.828;23.478;2022-10-22T05:51:09;7.93;;;7.13;;
9934;SDS011;5006;41.828;23.478;2022-10-22T05:52:16;8.90;;;7.32;;
9934;SDS011;5006;41.828;23.478;2022-10-22T05:53:21;8.48;;;7.43;;
9934;SDS011;5006;41.828;23.478;2022-10-22T05:54:26;9.20;;;7.90;;
9934;SDS011;5006;41.828;23.478;2022-10-22T05:55:33;10.73;;;7.90;;
9934;SDS011;5006;41.828;23.478;2022-10-22T05:56:42;10.07;;;8.25;;
9934;SDS011;5006;41.828;23.478;2022-10-22T05:57:47;11.27;;;7.95;;
9934;SDS011;5006;41.828;23.478;2022-10-22T05:58:53;13.32;;;7.07;;
9934;SDS011;5006;41.828;23.478;2022-10-22T05:59:58;11.25;;;9.35;;
9934;SDS011;5006;41.828;23.478;2022-10-22T06:01:04;12.10;;;10.32;;
9934;SDS011;5006;41.828;23.478;2022-10-22T06:02:11;12.18;;;10.07;;
9934;SDS011;5006;41.828;23.478;2022-10-22T06:03:16;11.27;;;9.48;;
9934;SDS011;5006;41.828;23.478;2022-10-22T06:04:21;13.07;;;9.88;;
9934;SDS011;5006;41.828;23.478;2022-10-22T06:05:27;13.25;;;9.90;;
9934;SDS011;5006;41.828;23.478;2022-10-22T06:06:34;12.50;;;9.38;;
9934;SDS011;5006;41.828;23.478;2022-10-22T06:07:41;14.13;;;9.52;;
9934;SDS011;5006;41.828;23.478;2022-10-22T06:08:46;14.70;;;10.77;;
9934;SDS011;5006;41.828;23.478;2022-10-22T06:09:54;16.63;;;11.45;;
9934;SDS011;5006;41.828;23.478;2022-10-22T06:10:59;12.40;;;10.82;;
9934;SDS011;5006;41.828;23.478;2022-10-22T06:12:05;14.25;;;11.80;;
9934;SDS011;5006;41.828;23.478;2022-10-22T06:13:13;14.18;;;12.48;;
9934;SDS011;5006;41.828;23.478;2022-10-22T06:14:20;12.45;;;11.15;;
9934;SDS011;5006;41.828;23.478;2022-10-22T06:15:26;16.35;;;12.60;;
9934;SDS011;5006;41.828;23.478;2022-10-22T06:16:31;14.30;;;12.68;;
9934;SDS011;5006;41.828;23.478;2022-10-22T06:17:37;15.43;;;12.75;;
9934;SDS011;5006;41.828;23.478;2022-10-22T06:18:42;13.93;;;12.43;;
9934;SDS011;5006;41.828;23.478;2022-10-22T06:19:48;18.58;;;15.68;;
9934;SDS011;5006;41.828;23.478;2022-10-22T06:20:53;21.13;;;17.77;;
9934;SDS011;5006;41.828;23.478;2022-10-22T06:22:00;24.38;;;18.40;;
9934;SDS011;5006;41.828;23.478;2022-10-22T06:23:05;19.70;;;17.63;;
9934;SDS011;5006;41.828;23.478;2022-10-22T06:24:11;19.98;;;17.90;;
9934;SDS011;5006;41.828;23.478;2022-10-22T06:25:16;19.55;;;17.63;;
9934;SDS011;5006;41.828;23.478;2022-10-22T06:26:22;21.00;;;17.77;;
9934;SDS011;5006;41.828;23.478;2022-10-22T06:27:26;22.08;;;19.67;;
9934;SDS011;5006;41.828;23.478;2022-10-22T06:28:33;21.67;;;19.33;;
9934;SDS011;5006;41.828;23.478;2022-10-22T06:29:39;20.60;;;18.40;;
9934;SDS011;5006;41.828;23.478;2022-10-22T06:30:44;21.67;;;19.48;;
9934;SDS011;5006;41.828;23.478;2022-10-22T06:31:50;21.15;;;18.95;;
9934;SDS011;5006;41.828;23.478;2022-10-22T06:32:54;21.98;;;19.27;;
9934;SDS011;5006;41.828;23.478;2022-10-22T06:34:00;23.25;;;19.60;;
9934;SDS011;5006;41.828;23.478;2022-10-22T06:35:05;19.73;;;17.67;;
9934;SDS011;5006;41.828;23.478;2022-10-22T06:36:12;20.77;;;18.40;;
9934;SDS011;5006;41.828;23.478;2022-10-22T06:37:19;22.40;;;18.95;;
9934;SDS011;5006;41.828;23.478;2022-10-22T06:38:26;22.48;;;18.83;;
9934;SDS011;5006;41.828;23.478;2022-10-22T06:39:31;23.15;;;18.95;;
9934;SDS011;5006;41.828;23.478;2022-10-22T06:40:36;20.42;;;17.85;;
9934;SDS011;5006;41.828;23.478;2022-10-22T06:41:41;20.95;;;17.73;;
9934;SDS011;5006;41.828;23.478;2022-10-22T06:42:47;21.02;;;18.67;;
9934;SDS011;5006;41.828;23.478;2022-10-22T06:43:53;20.38;;;18.40;;
9934;SDS011;5006;41.828;23.478;2022-10-22T06:45:00;23.30;;;20.90;;
9934;SDS011;5006;41.828;23.478;2022-10-22T06:46:05;22.42;;;19.88;;
9934;SDS011;5006;41.828;23.478;2022-10-22T06:47:12;22.75;;;20.40;;
9934;SDS011;5006;41.828;23.478;2022-10-22T06:48:17;24.48;;;21.83;;
9934;SDS011;5006;41.828;23.478;2022-10-22T06:49:23;25.92;;;23.23;;
9934;SDS011;5006;41.828;23.478;2022-10-22T06:50:27;24.52;;;22.08;;
9934;SDS011;5006;41.828;23.478;2022-10-22T06:51:33;25.27;;;22.63;;
9934;SDS011;5006;41.828;23.478;2022-10-22T06:52:39;25.52;;;22.83;;
9934;SDS011;5006;41.828;23.478;2022-10-22T06:53:45;26.83;;;24.10;;